This is the latest recevied weather packets stored in our database for station/object WB7AAV. If no packets are shown the sender has not sent any weather packets the latest 10 day(s).
| Time | Temp. | Humidity | Pressure | Rain* | Wind** | Luminosity | Snow |
|---|---|---|---|---|---|---|---|
| 1777133445 | 3.33° C | 67% | 1012.4 hPa | 0 mm | - | - | - |
| 1777132242 | 2.78° C | 69% | 1012.5 hPa | 0 mm | - | - | - |
| 1777128933 | 1.11° C | 75% | 1013.1 hPa | 0 mm | - | - | - |
| 1777128034 | 0.56° C | 75% | 1013.4 hPa | 0 mm | - | - | - |
| 1777127432 | 0.56° C | 77% | 1013.4 hPa | 0 mm | - | - | - |
| 1777126532 | 0° C | 77% | 1013.5 hPa | 0 mm | - | - | - |
| 1777124211 | -0.56° C | 80% | 1013.7 hPa | 0 mm | - | - | - |
| 1777121137 | -0.56° C | 81% | 1013.5 hPa | 0 mm | - | - | - |
| 1777118431 | -0.56° C | 82% | 1013.4 hPa | 0 mm | - | - | - |
| 1777117231 | -0.56° C | 83% | 1013 hPa | 0 mm | - | - | - |
| 1777116630 | 0° C | 83% | 1013.1 hPa | 0 mm | - | - | - |
| 1777116030 | 0° C | 82% | 1013.1 hPa | 0 mm | - | - | - |
| 1777114528 | -0.56° C | 83% | 1013 hPa | 0 mm | - | - | - |
| 1777112727 | -0.56° C | 84% | 1012.6 hPa | 0 mm | - | - | - |
| 1777109724 | -1.11° C | 87% | 1012 hPa | 0 mm | - | - | - |
| 1777109423 | -1.11° C | 87% | 1012.2 hPa | 0 mm | - | - | - |
| 1777107624 | -1.11° C | 85% | 1011.8 hPa | 0 mm | - | - | - |
| 1777107323 | -0.56° C | 85% | 1011.8 hPa | 0 mm | - | - | - |
| 1777106121 | -0.56° C | 83% | 1011.8 hPa | 0 mm | - | - | - |
| 1777103420 | 0.56° C | 82% | 1012 hPa | 0 mm | - | - | - |
| 1777100116 | 0.56° C | 80% | 1012.5 hPa | 0 mm | - | - | - |
| 1777098923 | 1.11° C | 78% | 1012.5 hPa | 0 mm | - | - | - |
| 1777098320 | 1.67° C | 77% | 1012.5 hPa | 0 mm | - | - | - |
| 1777097422 | 2.22° C | 74% | 1012.5 hPa | 0 mm | - | - | - |
| 1777097417 | 2.22° C | 75% | 1012.8 hPa | 0 mm | - | - | - |
* Rain latest hour (hover to see other rain measurements)
** Current wind speed in m/s (hover to see current wind gust speed)